Time;durP1;ratioP1;P1;durP2;ratioP2;P2;SDS_P1;SDS_P2;PMS_P1;PMS_P2;Temp;Humidity;BMP_temperature;BMP_pressure;BME280_temperature;BME280_humidity;BME280_pressure;Samples;Min_cycle;Max_cycle;Signal;HPM_P1;HPM_P2
2023/05/20 00:00:35;;;;;;;16.52;10.48;;;;;;;16.99;98.78;100056.53;5141620;27;20374;-64
2023/05/20 00:03:01;;;;;;;15.27;10.38;;;;;;;17.05;97.70;100053.88;5140796;27;20051;-64
2023/05/20 00:05:26;;;;;;;16.38;10.52;;;;;;;17.06;96.87;100046.69;5141601;27;20321;-64
2023/05/20 00:07:52;;;;;;;14.02;10.02;;;;;;;17.06;96.51;100052.88;5141453;27;20259;-64
2023/05/20 00:10:17;;;;;;;14.93;9.93;;;;;;;17.04;96.66;100057.59;5141179;27;20038;-64
2023/05/20 00:12:43;;;;;;;13.32;9.82;;;;;;;16.68;98.57;100051.56;5141580;27;20045;-64
2023/05/20 00:15:10;;;;;;;13.68;9.98;;;;;;;16.60;99.08;100039.94;5141665;27;20321;-64
2023/05/20 00:17:36;;;;;;;15.02;9.68;;;;;;;16.65;98.78;100042.09;5141328;27;20053;-64
2023/05/20 00:20:02;;;;;;;14.88;10.45;;;;;;;16.50;99.49;100043.97;5140944;27;20337;-64
2023/05/20 00:22:27;;;;;;;15.93;10.27;;;;;;;16.26;100.00;100043.34;5132627;27;20051;-64
2023/05/20 00:24:53;;;;;;;17.02;10.77;;;;;;;15.87;100.00;100043.78;5123290;27;20043;-64
2023/05/20 00:27:18;;;;;;;18.33;11.45;;;;;;;15.89;100.00;100040.91;5125148;27;20253;-64
2023/05/20 00:29:43;;;;;;;20.20;11.63;;;;;;;16.08;100.00;100032.28;5131272;27;20043;-64
2023/05/20 00:32:09;;;;;;;17.30;10.15;;;;;;;16.16;100.00;100029.47;5123170;27;20050;-64
2023/05/20 00:34:34;;;;;;;13.00;9.02;;;;;;;16.10;100.00;100024.91;5125234;27;20038;-64
2023/05/20 00:37:00;;;;;;;13.98;8.23;;;;;;;15.91;100.00;100022.88;5122876;27;20040;-64
2023/05/20 00:39:25;;;;;;;12.93;8.85;;;;;;;15.90;100.00;100027.38;5123693;27;20023;-64
2023/05/20 00:41:51;;;;;;;16.30;9.02;;;;;;;15.74;100.00;100024.94;5123066;27;20083;-64
2023/05/20 00:44:17;;;;;;;15.15;8.52;;;;;;;15.90;100.00;100018.53;5129344;27;20038;-64
2023/05/20 00:46:43;;;;;;;14.60;9.10;;;;;;;15.69;100.00;100019.34;5133958;27;20042;-64
2023/05/20 00:49:09;;;;;;;11.75;8.40;;;;;;;15.70;100.00;100018.31;5134873;27;20038;-64
2023/05/20 00:51:34;;;;;;;13.82;8.63;;;;;;;15.98;100.00;100023.75;5140570;27;20062;-64
2023/05/20 00:54:00;;;;;;;12.35;8.63;;;;;;;16.09;100.00;100020.59;5140656;27;20053;-64
2023/05/20 00:56:25;;;;;;;12.27;7.85;;;;;;;16.22;100.00;100014.53;5140406;27;20041;-64
2023/05/20 00:58:51;;;;;;;10.93;8.45;;;;;;;16.26;100.00;100013.97;5140029;27;20031;-64
2023/05/20 01:01:16;;;;;;;13.68;8.60;;;;;;;16.31;100.00;100008.03;5140411;27;20031;-64
2023/05/20 01:03:42;;;;;;;12.80;8.35;;;;;;;15.94;100.00;100004.63;5139692;27;20035;-64
2023/05/20 01:06:07;;;;;;;12.40;8.60;;;;;;;15.98;100.00;100004.25;5140491;27;20026;-64
2023/05/20 01:08:34;;;;;;;11.75;8.63;;;;;;;16.12;100.00;100014.84;5140642;27;20343;-64
2023/05/20 01:11:12;;;;;;;12.32;8.18;;;;;;;16.32;100.00;100009.69;5139857;27;20121;-64
2023/05/20 01:13:49;;;;;;;11.90;7.57;;;;;;;16.44;100.00;100015.34;5140005;27;20061;-64
2023/05/20 01:16:17;;;;;;;11.48;8.05;;;;;;;16.33;100.00;100014.00;5135733;27;20035;-64
2023/05/20 01:18:44;;;;;;;13.07;7.75;;;;;;;16.35;100.00;100005.81;5140050;27;20233;-64
2023/05/20 01:21:12;;;;;;;14.73;7.55;;;;;;;16.38;99.68;100003.56;5140256;27;20270;-64
2023/05/20 01:23:39;;;;;;;10.35;8.13;;;;;;;16.47;98.32;99997.06;5139691;27;20110;-64
2023/05/20 01:26:05;;;;;;;16.67;8.88;;;;;;;16.51;98.41;100005.53;5139577;27;20084;-64
2023/05/20 01:28:32;;;;;;;14.48;7.88;;;;;;;16.56;97.83;99993.22;5140201;27;20043;-64
2023/05/20 01:31:00;;;;;;;11.25;8.35;;;;;;;16.47;96.90;100004.25;5139615;27;20106;-64
2023/05/20 01:33:28;;;;;;;13.82;7.80;;;;;;;16.35;97.70;100001.28;5139917;27;20031;-64
2023/05/20 01:35:54;;;;;;;12.88;7.85;;;;;;;16.51;96.40;100001.00;5138482;27;20434;-64
2023/05/20 01:38:22;;;;;;;12.45;8.77;;;;;;;16.48;95.92;99995.22;5139567;27;20324;-64
2023/05/20 01:40:48;;;;;;;11.38;7.38;;;;;;;16.39;96.87;99999.88;5138365;27;20027;-64
2023/05/20 01:43:15;;;;;;;12.63;7.80;;;;;;;16.37;96.96;100003.75;5127417;27;20043;-64
2023/05/20 01:45:41;;;;;;;10.93;7.78;;;;;;;16.32;97.30;100001.66;5124828;27;20038;-64
2023/05/20 01:48:10;;;;;;;11.68;7.68;;;;;;;16.29;97.59;100002.88;5126020;27;20229;-64
2023/05/20 01:50:36;;;;;;;13.85;7.95;;;;;;;16.33;97.60;100005.16;5119906;27;20217;-64
2023/05/20 01:53:01;;;;;;;12.77;7.78;;;;;;;16.33;97.16;99995.31;5122080;27;20047;-64
2023/05/20 01:55:27;;;;;;;10.20;7.75;;;;;;;16.31;96.68;99983.16;5121365;27;20344;-64
2023/05/20 01:57:52;;;;;;;11.73;7.70;;;;;;;16.18;96.36;99983.88;5122124;27;20350;-64
2023/05/20 02:00:18;;;;;;;12.90;8.45;;;;;;;16.09;97.15;99988.53;5119667;27;20036;-64
2023/05/20 02:02:43;;;;;;;13.00;8.43;;;;;;;16.03;98.15;99975.09;5120902;27;20031;-64
2023/05/20 02:05:09;;;;;;;11.45;7.80;;;;;;;15.99;98.96;99977.34;5130431;27;20032;-64
2023/05/20 02:07:34;;;;;;;13.45;8.02;;;;;;;15.99;98.33;99961.31;5120939;27;20406;-64
2023/05/20 02:10:00;;;;;;;11.85;7.90;;;;;;;15.95;98.18;99962.72;5121506;27;20229;-64
2023/05/20 02:12:25;;;;;;;11.10;7.80;;;;;;;15.93;98.26;99965.56;5121305;27;20043;-64
2023/05/20 02:14:50;;;;;;;12.68;7.82;;;;;;;15.96;97.53;99964.38;5122448;27;20031;-64
2023/05/20 02:17:16;;;;;;;13.05;7.53;;;;;;;15.99;97.22;99963.97;5125856;27;20040;-64
2023/05/20 02:19:43;;;;;;;13.07;8.00;;;;;;;15.93;96.52;99952.22;5125260;27;20027;-64
2023/05/20 02:22:08;;;;;;;11.55;8.15;;;;;;;15.93;96.90;99962.06;5121736;27;20239;-64
2023/05/20 02:24:34;;;;;;;10.60;7.75;;;;;;;15.94;97.10;99961.06;5126987;28;20054;-64
2023/05/20 02:27:00;;;;;;;11.15;7.80;;;;;;;15.98;96.52;99964.19;5125041;28;20083;-64
2023/05/20 02:29:26;;;;;;;10.73;7.00;;;;;;;15.98;95.85;99956.16;5119887;28;20027;-64
2023/05/20 02:31:51;;;;;;;13.32;7.78;;;;;;;15.86;96.33;99958.53;5119302;28;20387;-64
2023/05/20 02:34:17;;;;;;;10.80;7.15;;;;;;;15.79;97.64;99965.63;5127003;28;20024;-64
2023/05/20 02:36:43;;;;;;;12.75;7.85;;;;;;;15.67;98.07;99962.66;5119733;28;20099;-64
2023/05/20 02:39:08;;;;;;;11.27;6.70;;;;;;;15.59;98.94;99965.41;5123227;28;20043;-64
2023/05/20 02:41:33;;;;;;;10.18;7.13;;;;;;;15.65;99.39;99970.00;5121201;28;20047;-64
2023/05/20 02:43:59;;;;;;;10.98;7.53;;;;;;;15.74;99.30;99973.38;5120731;28;20494;-64
2023/05/20 02:46:24;;;;;;;12.20;8.20;;;;;;;15.82;98.52;99978.59;5131671;27;20053;-64
2023/05/20 02:48:50;;;;;;;9.45;7.70;;;;;;;15.94;97.64;99974.41;5125083;27;20116;-64
2023/05/20 02:51:15;;;;;;;13.07;7.63;;;;;;;16.04;96.56;99974.91;5124286;27;20053;-64
2023/05/20 02:53:41;;;;;;;11.35;6.97;;;;;;;16.12;95.22;99985.47;5125114;27;20041;-64
2023/05/20 02:56:07;;;;;;;11.27;6.75;;;;;;;16.10;94.84;99984.84;5125749;27;20028;-64
2023/05/20 02:58:34;;;;;;;12.77;7.75;;;;;;;16.21;94.02;99991.50;5124858;27;20081;-64
2023/05/20 03:01:00;;;;;;;10.02;7.85;;;;;;;16.26;93.27;99991.75;5123915;27;20245;-64
2023/05/20 03:03:26;;;;;;;12.43;7.68;;;;;;;16.31;92.55;99988.50;5123853;27;20043;-64
2023/05/20 03:05:52;;;;;;;10.15;6.88;;;;;;;16.33;92.45;99989.97;5127350;27;20030;-64
2023/05/20 03:08:20;;;;;;;9.63;6.70;;;;;;;16.27;91.81;100002.25;5126626;27;20107;-64
2023/05/20 03:10:45;;;;;;;10.32;6.90;;;;;;;16.08;90.78;100013.59;5123065;27;20023;-64
2023/05/20 03:13:10;;;;;;;9.02;6.13;;;;;;;15.67;92.64;100012.53;5124312;27;20039;-64
2023/05/20 03:15:37;;;;;;;9.73;6.60;;;;;;;15.40;93.95;100022.84;5123734;27;20034;-64
2023/05/20 03:18:03;;;;;;;11.55;7.15;;;;;;;15.03;97.61;100037.13;5123453;27;20047;-63
2023/05/20 03:20:29;;;;;;;10.38;7.65;;;;;;;14.73;100.00;100044.25;5124293;27;20041;-63
2023/05/20 03:22:55;;;;;;;12.07;7.55;;;;;;;14.72;100.00;100045.28;5125334;27;20050;-63
2023/05/20 03:25:21;;;;;;;13.05;7.60;;;;;;;14.75;100.00;100044.91;5123812;27;20024;-64
2023/05/20 03:27:47;;;;;;;10.07;7.78;;;;;;;14.84;100.00;100041.16;5123064;27;20032;-64
2023/05/20 03:30:13;;;;;;;11.10;7.43;;;;;;;14.94;100.00;100046.22;5124517;27;20116;-64
2023/05/20 03:32:38;;;;;;;10.32;7.60;;;;;;;14.74;100.00;100055.75;5124158;27;20039;-64
2023/05/20 03:35:05;;;;;;;10.02;6.60;;;;;;;14.48;100.00;100059.63;5125453;27;20047;-64
2023/05/20 03:37:31;;;;;;;13.85;8.27;;;;;;;14.52;100.00;100052.91;5123591;27;20043;-64
2023/05/20 03:39:56;;;;;;;12.13;8.18;;;;;;;14.85;100.00;100045.47;5124350;27;20054;-64
2023/05/20 03:42:21;;;;;;;12.20;7.95;;;;;;;15.04;100.00;100046.78;5132849;27;20318;-64
2023/05/20 03:44:47;;;;;;;12.55;7.40;;;;;;;15.15;100.00;100043.66;5123569;27;20221;-64
2023/05/20 03:47:12;;;;;;;11.65;8.55;;;;;;;14.91;100.00;100043.91;5123703;27;20043;-64
2023/05/20 03:49:39;;;;;;;12.35;8.10;;;;;;;14.92;100.00;100035.75;5126811;27;20069;-64
2023/05/20 03:52:05;;;;;;;12.43;7.63;;;;;;;15.07;100.00;100021.59;5131316;27;20062;-66
2023/05/20 03:54:31;;;;;;;18.50;8.65;;;;;;;15.24;100.00;100026.53;5124417;27;20336;-63
2023/05/20 03:56:56;;;;;;;11.57;7.78;;;;;;;15.29;100.00;100023.31;5126822;27;20027;-64
2023/05/20 03:59:22;;;;;;;10.30;7.65;;;;;;;15.29;100.00;100023.31;5125079;27;20235;-64
2023/05/20 04:01:47;;;;;;;9.68;7.13;;;;;;;15.40;100.00;100024.69;5123256;27;20043;-64
2023/05/20 04:04:13;;;;;;;13.90;9.27;;;;;;;15.46;100.00;100023.94;5123435;27;20036;-64
2023/05/20 04:06:39;;;;;;;11.40;7.75;;;;;;;15.51;100.00;100026.88;5126175;27;20028;-63
2023/05/20 04:09:05;;;;;;;11.48;7.68;;;;;;;15.57;100.00;100036.78;5131262;27;20355;-64
2023/05/20 04:11:30;;;;;;;13.73;7.63;;;;;;;15.63;100.00;100042.28;5130238;27;20035;-64
2023/05/20 04:13:57;;;;;;;13.82;8.02;;;;;;;15.69;100.00;100037.19;5125136;27;20047;-64
2023/05/20 04:16:22;;;;;;;14.60;7.93;;;;;;;15.81;100.00;100036.53;5124612;27;20057;-64
2023/05/20 04:18:49;;;;;;;11.40;7.30;;;;;;;15.86;100.00;100031.44;5134450;27;20031;-64
2023/05/20 04:21:15;;;;;;;12.32;7.65;;;;;;;15.86;100.00;100022.59;5124268;27;20730;-64
2023/05/20 04:23:40;;;;;;;12.50;7.90;;;;;;;15.87;100.00;100021.59;5121922;27;20052;-64
2023/05/20 04:26:05;;;;;;;11.05;7.65;;;;;;;15.85;100.00;100027.13;5127622;27;20031;-64
2023/05/20 04:28:31;;;;;;;12.40;7.75;;;;;;;15.81;100.00;100017.84;5127148;27;20050;-64
2023/05/20 04:31:03;;;;;;;14.30;7.68;;;;;;;15.86;100.00;100015.41;5129111;27;20030;-64
2023/05/20 04:33:29;;;;;;;10.88;7.78;;;;;;;16.09;99.66;100022.41;5139413;27;20198;-64
2023/05/20 04:35:57;;;;;;;11.77;7.72;;;;;;;16.31;97.98;100031.25;5126184;27;20049;-64
2023/05/20 04:38:28;;;;;;;11.77;7.32;;;;;;;16.55;96.74;100041.53;5124275;27;20031;-64
2023/05/20 04:40:57;;;;;;;9.98;6.90;;;;;;;16.81;95.11;100038.31;5125385;27;20035;-64
2023/05/20 04:43:28;;;;;;;10.93;7.22;;;;;;;17.04;93.01;100051.41;5123406;27;20220;-64
2023/05/20 04:45:58;;;;;;;7.72;6.93;;;;;;;17.30;91.31;100059.59;5126214;27;20221;-64
2023/05/20 04:48:24;;;;;;;8.23;6.50;;;;;;;17.50;90.25;100057.84;5123873;27;20063;-64
2023/05/20 04:50:53;;;;;;;11.18;7.93;;;;;;;17.74;88.35;100053.88;5131717;27;20027;-64
2023/05/20 04:53:20;;;;;;;9.30;7.63;;;;;;;18.04;85.96;100059.72;5122225;27;20035;-64
2023/05/20 04:55:46;;;;;;;10.25;6.80;;;;;;;18.24;83.96;100058.94;5124254;27;20110;-64
2023/05/20 04:58:16;;;;;;;9.57;7.28;;;;;;;18.34;83.31;100049.47;5125838;27;20039;-64
2023/05/20 05:00:43;;;;;;;9.60;7.57;;;;;;;18.49;81.79;100044.72;5131645;27;20023;-64
2023/05/20 05:03:08;;;;;;;9.98;7.78;;;;;;;18.56;79.93;100054.63;5123281;27;20039;-64
2023/05/20 05:05:35;;;;;;;13.45;7.80;;;;;;;18.61;80.43;100054.84;5122060;27;20217;-64
2023/05/20 05:08:02;;;;;;;10.35;7.78;;;;;;;18.68;79.82;100053.81;5121148;27;20039;-64
2023/05/20 05:10:27;;;;;;;10.88;8.35;;;;;;;18.82;79.61;100062.72;5122746;27;20042;-64
2023/05/20 05:12:53;;;;;;;11.55;7.80;;;;;;;18.95;77.07;100059.19;5125991;27;20039;-64
2023/05/20 05:15:18;;;;;;;11.15;7.88;;;;;;;19.14;76.30;100056.47;5127079;27;20035;-64
2023/05/20 05:17:43;;;;;;;11.32;7.75;;;;;;;19.35;74.24;100062.63;5125985;27;20039;-64
2023/05/20 05:20:09;;;;;;;12.55;7.97;;;;;;;19.42;73.69;100060.72;5123124;27;20446;-64
2023/05/20 05:22:35;;;;;;;12.38;8.45;;;;;;;19.51;73.93;100061.31;5124871;27;20122;-64
2023/05/20 05:25:02;;;;;;;11.95;8.48;;;;;;;19.81;72.28;100061.66;5121281;27;20333;-64
2023/05/20 05:27:28;;;;;;;10.07;8.02;;;;;;;19.95;69.99;100058.69;5125291;27;20125;-64
2023/05/20 05:29:53;;;;;;;8.93;7.30;;;;;;;20.14;69.76;100056.09;5124190;27;20084;-64
2023/05/20 05:32:19;;;;;;;13.70;8.60;;;;;;;20.31;70.10;100062.59;5121718;27;20344;-64
2023/05/20 05:34:44;;;;;;;14.80;9.02;;;;;;;20.40;69.44;100069.41;5104333;27;20279;-64
2023/05/20 05:37:10;;;;;;;12.65;8.52;;;;;;;20.46;68.01;100051.56;5122670;27;20066;-64
2023/05/20 05:39:36;;;;;;;12.20;8.50;;;;;;;20.53;68.53;100060.41;5123256;27;20040;-64
2023/05/20 05:42:02;;;;;;;13.50;8.52;;;;;;;20.56;68.96;100060.78;5122555;27;20035;-64
2023/05/20 05:44:28;;;;;;;13.25;8.30;;;;;;;20.77;68.74;100056.06;5128174;27;20058;-64
2023/05/20 05:46:53;;;;;;;11.73;8.07;;;;;;;21.00;68.75;100059.81;5120190;27;20054;-64
2023/05/20 05:49:19;;;;;;;12.38;9.82;;;;;;;21.15;67.43;100064.84;5121323;27;20035;-63
2023/05/20 05:51:44;;;;;;;12.68;8.50;;;;;;;21.38;66.63;100057.97;5121016;27;20036;-64
2023/05/20 05:54:09;;;;;;;11.88;8.95;;;;;;;21.61;64.28;100045.47;5123792;27;20067;-64
2023/05/20 05:56:35;;;;;;;16.88;10.75;;;;;;;21.82;62.68;100056.81;5123532;27;20049;-64
2023/05/20 05:59:00;;;;;;;11.45;6.93;;;;;;;21.90;61.82;100048.44;5120443;27;20533;-64
2023/05/20 06:01:26;;;;;;;9.82;7.15;;;;;;;22.14;62.02;100050.19;5120623;27;20426;-64
2023/05/20 06:03:52;;;;;;;13.90;8.55;;;;;;;22.25;62.53;100048.59;5121822;27;20038;-64
2023/05/20 06:06:17;;;;;;;12.80;8.65;;;;;;;22.22;63.64;100049.03;5120394;27;20030;-64
2023/05/20 06:08:42;;;;;;;12.93;8.27;;;;;;;22.10;61.79;100038.22;5121461;27;20035;-64
2023/05/20 06:11:08;;;;;;;11.85;8.35;;;;;;;22.33;62.08;100047.44;5123877;27;20035;-64
2023/05/20 06:13:35;;;;;;;12.40;8.82;;;;;;;22.43;61.75;100042.28;5121744;27;20036;-64
2023/05/20 06:16:00;;;;;;;10.88;8.07;;;;;;;22.65;61.13;100045.25;5121678;27;20308;-64
2023/05/20 06:18:26;;;;;;;12.45;9.13;;;;;;;22.85;60.24;100043.88;5124095;27;20038;-64
2023/05/20 06:20:56;;;;;;;11.05;7.85;;;;;;;22.98;59.19;100044.72;5121594;27;20155;-64
2023/05/20 06:23:21;;;;;;;14.13;8.95;;;;;;;23.14;58.63;100044.00;5123803;27;20275;-64
2023/05/20 06:25:47;;;;;;;9.60;7.38;;;;;;;23.47;57.17;100044.19;5124497;28;20039;-64
2023/05/20 06:28:13;;;;;;;9.55;7.60;;;;;;;23.44;54.87;100039.25;5123405;27;20031;-64
2023/05/20 06:30:39;;;;;;;11.95;7.45;;;;;;;23.68;54.33;100048.13;5120973;28;20357;-64
2023/05/20 06:33:05;;;;;;;9.40;6.63;;;;;;;23.60;54.40;100043.13;5119979;28;20038;-62
2023/05/20 06:35:33;;;;;;;8.70;6.65;;;;;;;23.75;53.60;100051.53;5120891;28;20031;-62
2023/05/20 06:38:00;;;;;;;9.65;6.45;;;;;;;23.93;52.88;100047.84;5123608;28;20042;-62
2023/05/20 06:40:26;;;;;;;9.70;6.75;;;;;;;24.00;51.91;100048.50;5124513;28;20061;-62
2023/05/20 06:42:51;;;;;;;7.93;6.47;;;;;;;24.29;51.61;100040.38;5127447;28;20043;-61
2023/05/20 06:45:17;;;;;;;7.95;5.93;;;;;;;24.52;51.99;100040.22;5120342;28;20260;-62
2023/05/20 06:47:43;;;;;;;10.88;8.85;;;;;;;24.70;50.72;100037.28;5119103;28;20051;-62
2023/05/20 06:50:09;;;;;;;7.32;5.93;;;;;;;24.65;48.55;100031.78;5124665;27;20130;-62
2023/05/20 06:52:35;;;;;;;7.32;5.95;;;;;;;24.61;47.69;100043.34;5125372;27;20044;-62
2023/05/20 06:55:01;;;;;;;8.52;7.40;;;;;;;24.23;46.39;100036.75;5131397;27;20030;-62
2023/05/20 06:57:26;;;;;;;7.70;6.90;;;;;;;24.31;46.94;100033.66;5132534;27;20208;-62
2023/05/20 06:59:51;;;;;;;9.43;6.78;;;;;;;24.68;47.01;100030.47;5131270;27;20034;-62
2023/05/20 07:02:17;;;;;;;10.63;6.57;;;;;;;24.83;45.39;100025.28;5132584;27;20039;-62
2023/05/20 07:04:42;;;;;;;9.88;5.72;;;;;;;24.92;45.01;100020.25;5130636;27;20029;-62
2023/05/20 07:07:08;;;;;;;8.20;6.15;;;;;;;25.01;45.20;100021.53;5131004;27;20339;-64
2023/05/20 07:09:33;;;;;;;7.97;6.40;;;;;;;24.90;45.79;100025.09;5131034;27;20042;-65
2023/05/20 07:11:59;;;;;;;7.72;6.00;;;;;;;25.05;45.63;100022.66;5128940;27;20059;-64
2023/05/20 07:14:24;;;;;;;8.80;6.15;;;;;;;25.26;46.36;100024.56;5131433;27;20365;-64
2023/05/20 07:16:50;;;;;;;7.80;6.15;;;;;;;25.13;44.45;100023.06;5130246;27;20027;-64
2023/05/20 07:19:15;;;;;;;7.35;5.82;;;;;;;25.39;45.86;100034.22;5131418;27;20035;-64
2023/05/20 07:21:40;;;;;;;7.22;6.15;;;;;;;25.54;45.02;100025.47;5130028;27;20383;-64
2023/05/20 07:24:06;;;;;;;9.45;6.43;;;;;;;25.58;43.28;100022.00;5122521;27;20049;-64
2023/05/20 07:26:35;;;;;;;8.13;6.90;;;;;;;25.34;45.76;100017.91;5120283;28;20039;-62
2023/05/20 07:29:01;;;;;;;12.30;7.22;;;;;;;25.09;45.03;100026.53;5120258;28;20051;-62
2023/05/20 07:31:26;;;;;;;13.38;7.97;;;;;;;24.91;46.71;100029.44;5121489;27;20344;-62
2023/05/20 07:33:51;;;;;;;7.80;6.95;;;;;;;25.17;47.67;100017.97;5123487;27;20031;-62
2023/05/20 07:36:17;;;;;;;10.13;6.72;;;;;;;25.46;45.27;100019.41;5122857;27;20038;-62
2023/05/20 07:38:42;;;;;;;7.75;5.57;;;;;;;25.72;42.10;100022.44;5123492;27;20039;-62
2023/05/20 07:41:08;;;;;;;8.80;6.20;;;;;;;25.86;40.55;100028.28;5127457;27;20036;-62
2023/05/20 07:43:33;;;;;;;8.50;6.43;;;;;;;26.12;41.14;100026.66;5126684;27;20459;-63
2023/05/20 07:45:58;;;;;;;7.53;6.15;;;;;;;26.34;42.88;100030.16;5131586;27;20055;-62
2023/05/20 07:48:24;;;;;;;9.73;6.68;;;;;;;26.42;39.96;100024.25;5134567;27;20441;-62
2023/05/20 07:50:49;;;;;;;9.85;6.65;;;;;;;26.66;39.43;100027.41;5135591;27;20050;-62
2023/05/20 07:53:15;;;;;;;7.88;6.38;;;;;;;26.74;38.47;100024.22;5127627;27;20039;-63
2023/05/20 07:55:40;;;;;;;7.47;6.70;;;;;;;26.87;38.68;100010.19;5122825;27;20030;-62
2023/05/20 07:58:06;;;;;;;6.97;5.68;;;;;;;27.11;38.63;100007.91;5124997;27;20103;-62
2023/05/20 08:00:31;;;;;;;8.07;6.28;;;;;;;27.19;40.02;100009.31;5124580;27;20697;-62
2023/05/20 08:02:56;;;;;;;9.05;6.15;;;;;;;27.10;40.37;100019.06;5129444;27;20047;-62
2023/05/20 08:05:22;;;;;;;8.07;5.75;;;;;;;27.35;39.20;100017.28;5141597;27;20031;-62
2023/05/20 08:07:47;;;;;;;5.97;5.38;;;;;;;26.89;40.81;100010.72;5140856;27;20062;-63
2023/05/20 08:10:13;;;;;;;9.77;5.97;;;;;;;26.85;40.82;100014.22;5141136;27;20085;-63
2023/05/20 08:12:38;;;;;;;7.72;6.55;;;;;;;27.20;40.95;100010.94;5140906;27;20175;-63
2023/05/20 08:15:05;;;;;;;9.15;5.45;;;;;;;27.22;38.40;100019.66;5140827;27;20213;-63
2023/05/20 08:17:31;;;;;;;7.43;5.60;;;;;;;27.31;37.63;100015.34;5131398;27;20046;-63
2023/05/20 08:19:57;;;;;;;7.78;5.55;;;;;;;27.36;36.29;100020.81;5141577;27;20031;-63
2023/05/20 08:22:22;;;;;;;8.45;6.15;;;;;;;27.43;37.82;100017.84;5140951;27;20039;-62
2023/05/20 08:24:47;;;;;;;9.52;5.78;;;;;;;27.58;38.94;100009.75;5140560;27;20349;-63
2023/05/20 08:27:13;;;;;;;6.55;5.75;;;;;;;27.64;38.17;100014.13;5141002;27;20332;-63
2023/05/20 08:29:38;;;;;;;8.55;5.95;;;;;;;27.84;38.62;100018.81;5140527;27;20056;-63
2023/05/20 08:32:04;;;;;;;7.28;5.75;;;;;;;27.78;38.43;100012.53;5140175;27;20043;-63
2023/05/20 08:34:30;;;;;;;6.95;5.75;;;;;;;27.83;36.83;100011.75;5122592;27;20067;-63
2023/05/20 08:36:56;;;;;;;7.60;6.15;;;;;;;27.80;36.11;100015.81;5140485;27;20031;-63
2023/05/20 08:39:22;;;;;;;8.02;5.53;;;;;;;27.36;38.03;100009.94;5140499;27;20031;-63
2023/05/20 08:41:48;;;;;;;6.80;5.43;;;;;;;26.04;40.56;100001.63;5140227;27;20050;-63
2023/05/20 08:44:13;;;;;;;9.05;5.20;;;;;;;25.34;44.47;100007.06;5140454;27;20076;-63
2023/05/20 08:46:40;;;;;;;7.05;5.53;;;;;;;24.91;43.44;100005.06;5141063;27;20030;-62
2023/05/20 08:49:06;;;;;;;6.13;5.22;;;;;;;24.49;44.37;100011.78;5141102;27;20038;-62
2023/05/20 08:51:32;;;;;;;8.75;5.90;;;;;;;24.13;46.37;100007.63;5140859;27;20035;-62
2023/05/20 08:53:58;;;;;;;6.28;5.53;;;;;;;24.38;48.18;100018.09;5139791;27;20086;-63
2023/05/20 08:56:26;;;;;;;6.38;5.32;;;;;;;24.30;48.24;100009.56;5130394;27;20110;-62
2023/05/20 08:58:52;;;;;;;6.88;5.07;;;;;;;23.90;47.57;100007.72;5137805;27;20262;-63
2023/05/20 09:01:18;;;;;;;7.43;5.60;;;;;;;24.12;45.87;100011.41;5139819;27;20244;-63
2023/05/20 09:03:43;;;;;;;6.55;5.85;;;;;;;24.27;44.32;100013.56;5139780;27;20031;-63
2023/05/20 09:06:09;;;;;;;6.35;5.38;;;;;;;23.87;48.50;100017.13;5140551;27;20034;-63
2023/05/20 09:08:35;;;;;;;6.28;4.93;;;;;;;23.46;48.98;100011.97;5140036;27;20035;-63
2023/05/20 09:11:00;;;;;;;5.72;5.10;;;;;;;23.20;48.97;100000.66;5140019;27;20023;-63
2023/05/20 09:13:26;;;;;;;8.20;5.25;;;;;;;23.09;52.99;100011.47;5139736;27;20062;-63
2023/05/20 09:15:52;;;;;;;6.22;4.70;;;;;;;23.22;52.62;100012.03;5140134;27;20224;-63
2023/05/20 09:18:17;;;;;;;7.85;5.45;;;;;;;23.30;53.33;100015.44;5140630;27;20098;-63
2023/05/20 09:20:46;;;;;;;7.18;5.13;;;;;;;23.12;52.38;100016.41;5140409;27;20024;-63
2023/05/20 09:23:11;;;;;;;6.47;4.53;;;;;;;23.30;50.23;100010.84;5137612;27;20051;-63
2023/05/20 09:25:37;;;;;;;5.63;4.68;;;;;;;23.62;53.34;100007.72;5140136;27;20034;-63
2023/05/20 09:28:07;;;;;;;5.55;4.93;;;;;;;23.89;48.29;100008.78;5140232;27;20251;-64
2023/05/20 09:30:33;;;;;;;5.93;4.72;;;;;;;23.94;48.72;99998.09;5139243;27;20274;-63
2023/05/20 09:33:00;;;;;;;6.20;5.15;;;;;;;23.75;48.23;99994.75;5139612;27;20081;-63
2023/05/20 09:35:26;;;;;;;8.38;5.05;;;;;;;23.72;50.65;99992.53;5139452;27;20038;-63
2023/05/20 09:37:56;;;;;;;7.20;5.43;;;;;;;23.71;50.08;99998.16;5138968;27;20578;-64
2023/05/20 09:40:25;;;;;;;5.70;5.10;;;;;;;23.47;48.68;99986.59;5139762;27;20050;-64
2023/05/20 09:42:58;;;;;;;6.32;4.65;;;;;;;23.48;49.46;99991.75;5139288;27;20037;-63
2023/05/20 09:45:24;;;;;;;8.77;4.80;;;;;;;23.26;49.96;99988.06;5138728;27;20344;-64
2023/05/20 09:47:51;;;;;;;7.80;5.60;;;;;;;23.53;50.34;99989.16;5139637;27;20075;-64
2023/05/20 09:50:22;;;;;;;6.68;5.13;;;;;;;23.54;51.54;99996.25;5139646;27;20114;-63
2023/05/20 09:52:48;;;;;;;6.95;4.90;;;;;;;23.41;51.23;99985.69;5139304;27;20110;-63
2023/05/20 09:55:16;;;;;;;7.32;4.82;;;;;;;23.44;53.02;99982.50;5138340;27;20079;-63
2023/05/20 09:57:42;;;;;;;7.38;5.22;;;;;;;23.61;52.32;99997.97;5139380;27;20359;-64
2023/05/20 10:00:08;;;;;;;7.53;5.18;;;;;;;23.42;51.12;99987.31;5138837;27;20042;-64
2023/05/20 10:02:34;;;;;;;6.75;5.20;;;;;;;23.30;50.33;99983.00;5138803;27;20046;-64
2023/05/20 10:05:09;;;;;;;5.43;4.70;;;;;;;23.44;53.40;99993.31;5137547;27;20062;-64
2023/05/20 10:07:41;;;;;;;7.20;5.22;;;;;;;23.39;47.15;99990.50;5133499;27;20043;-64
2023/05/20 10:10:44;;;;;;;10.43;6.05;;;;;;;23.52;48.65;99984.00;5137519;27;20071;-64
2023/05/20 10:13:30;;;;;;;8.40;6.22;;;;;;;23.55;45.63;99989.78;5138898;27;20055;-64
2023/05/20 10:16:14;;;;;;;8.95;6.05;;;;;;;23.40;47.47;99983.22;5138874;27;20035;-64
2023/05/20 10:18:42;;;;;;;;;;;;;;;23.30;47.01;99977.63;5136775;27;20043;-64
2023/05/20 10:21:15;;;;;;;7.28;5.40;;;;;;;23.41;51.60;99982.16;5138892;27;19990;-65
2023/05/20 10:23:41;;;;;;;7.25;5.82;;;;;;;23.41;51.61;99976.75;5137582;27;20349;-64
2023/05/20 10:26:08;;;;;;;6.88;5.35;;;;;;;23.17;49.22;99981.41;5138520;27;20071;-64
2023/05/20 10:28:35;;;;;;;9.77;5.32;;;;;;;23.20;48.57;99973.63;5130159;28;20035;-64
2023/05/20 10:31:01;;;;;;;7.95;5.40;;;;;;;23.06;48.26;99977.66;5138756;27;20035;-64
2023/05/20 10:33:28;;;;;;;7.47;5.38;;;;;;;23.01;51.27;99984.84;5138688;28;20038;-64
2023/05/20 10:35:57;;;;;;;6.00;4.60;;;;;;;22.60;51.51;99987.41;5138734;27;20353;-64
2023/05/20 10:38:23;;;;;;;5.95;4.88;;;;;;;22.52;57.62;99976.13;5137194;28;20042;-64
2023/05/20 10:40:48;;;;;;;6.50;5.32;;;;;;;22.32;57.29;99973.78;5138274;28;20321;-64
2023/05/20 10:43:16;;;;;;;6.22;5.07;;;;;;;22.27;56.87;99974.47;5138313;27;20090;-64
2023/05/20 10:45:53;;;;;;;6.93;4.72;;;;;;;22.33;55.75;99980.81;5138599;27;20031;-64
2023/05/20 10:48:27;;;;;;;7.38;5.20;;;;;;;22.11;57.28;99975.16;5138161;27;20274;-64
2023/05/20 10:50:58;;;;;;;5.53;4.93;;;;;;;21.92;56.89;99976.25;5137580;27;20106;-63
2023/05/20 10:53:25;;;;;;;5.70;4.95;;;;;;;21.85;57.69;99967.44;5136603;27;20392;-63
2023/05/20 10:55:56;;;;;;;5.85;4.60;;;;;;;21.79;57.63;99963.75;5119717;27;20226;-64
2023/05/20 10:58:23;;;;;;;5.40;4.82;;;;;;;21.91;58.91;99967.34;5137910;27;20080;-64
2023/05/20 11:00:52;;;;;;;6.35;5.38;;;;;;;22.02;60.87;99968.41;5138717;27;20051;-64
2023/05/20 11:03:20;;;;;;;6.70;4.90;;;;;;;22.01;60.20;99969.47;5138813;28;20039;-64
2023/05/20 11:05:46;;;;;;;6.82;4.95;;;;;;;22.05;58.11;99969.84;5138430;27;20084;-63
2023/05/20 11:08:13;;;;;;;5.40;4.38;;;;;;;22.17;56.84;99963.44;5141039;27;20046;-64
2023/05/20 11:10:40;;;;;;;6.57;4.82;;;;;;;22.28;58.12;99965.31;5142739;27;20071;-64
2023/05/20 11:13:06;;;;;;;7.20;4.80;;;;;;;22.35;56.21;99953.59;5142427;27;20039;-64
2023/05/20 11:15:33;;;;;;;6.35;4.20;;;;;;;22.53;54.92;99951.59;5142231;27;20031;-64
2023/05/20 11:18:01;;;;;;;4.82;4.10;;;;;;;22.49;51.18;99960.41;5142420;27;20245;-64